sensor_id;sensor_type;location;lat;lon;timestamp;P1;durP1;ratioP1;P2;durP2;ratioP2
53751;SDS011;41095;53.090;6.692;2023-02-11T00:01:27;18.95;;;8.38;;
53751;SDS011;41095;53.090;6.692;2023-02-11T00:03:55;13.40;;;7.50;;
53751;SDS011;41095;53.090;6.692;2023-02-11T00:06:22;15.05;;;8.07;;
53751;SDS011;41095;53.090;6.692;2023-02-11T00:08:48;22.60;;;8.90;;
53751;SDS011;41095;53.090;6.692;2023-02-11T00:11:15;13.68;;;7.72;;
53751;SDS011;41095;53.090;6.692;2023-02-11T00:13:42;19.83;;;8.70;;
53751;SDS011;41095;53.090;6.692;2023-02-11T00:16:09;29.88;;;8.07;;
53751;SDS011;41095;53.090;6.692;2023-02-11T00:18:36;11.45;;;5.97;;
53751;SDS011;41095;53.090;6.692;2023-02-11T00:21:22;20.25;;;8.15;;
53751;SDS011;41095;53.090;6.692;2023-02-11T00:23:49;12.55;;;8.75;;
53751;SDS011;41095;53.090;6.692;2023-02-11T00:26:19;16.08;;;8.43;;
53751;SDS011;41095;53.090;6.692;2023-02-11T00:28:47;11.15;;;7.28;;
53751;SDS011;41095;53.090;6.692;2023-02-11T00:31:15;22.42;;;7.80;;
53751;SDS011;41095;53.090;6.692;2023-02-11T00:33:42;16.10;;;8.18;;
53751;SDS011;41095;53.090;6.692;2023-02-11T00:36:09;20.58;;;8.50;;
53751;SDS011;41095;53.090;6.692;2023-02-11T00:38:38;23.00;;;9.73;;
53751;SDS011;41095;53.090;6.692;2023-02-11T00:41:06;16.45;;;7.63;;
53751;SDS011;41095;53.090;6.692;2023-02-11T00:43:32;18.75;;;7.80;;
53751;SDS011;41095;53.090;6.692;2023-02-11T00:45:58;17.00;;;7.72;;
53751;SDS011;41095;53.090;6.692;2023-02-11T00:48:23;18.30;;;7.10;;
53751;SDS011;41095;53.090;6.692;2023-02-11T00:50:49;21.58;;;7.75;;
53751;SDS011;41095;53.090;6.692;2023-02-11T00:53:15;19.13;;;7.68;;
53751;SDS011;41095;53.090;6.692;2023-02-11T00:55:40;19.55;;;9.13;;
53751;SDS011;41095;53.090;6.692;2023-02-11T00:58:06;15.68;;;7.45;;
53751;SDS011;41095;53.090;6.692;2023-02-11T01:00:31;14.15;;;6.82;;
53751;SDS011;41095;53.090;6.692;2023-02-11T01:02:57;16.65;;;7.57;;
53751;SDS011;41095;53.090;6.692;2023-02-11T01:05:23;24.05;;;7.85;;
53751;SDS011;41095;53.090;6.692;2023-02-11T01:07:48;19.73;;;7.38;;
53751;SDS011;41095;53.090;6.692;2023-02-11T01:10:14;15.13;;;8.85;;
53751;SDS011;41095;53.090;6.692;2023-02-11T01:12:40;18.83;;;7.88;;
53751;SDS011;41095;53.090;6.692;2023-02-11T01:15:07;17.70;;;7.95;;
53751;SDS011;41095;53.090;6.692;2023-02-11T01:17:34;17.92;;;7.43;;
53751;SDS011;41095;53.090;6.692;2023-02-11T01:20:07;14.77;;;8.07;;
53751;SDS011;41095;53.090;6.692;2023-02-11T01:22:37;16.90;;;8.30;;
53751;SDS011;41095;53.090;6.692;2023-02-11T01:25:04;12.65;;;7.78;;
53751;SDS011;41095;53.090;6.692;2023-02-11T01:27:33;15.35;;;8.30;;
53751;SDS011;41095;53.090;6.692;2023-02-11T01:29:58;17.33;;;7.85;;
53751;SDS011;41095;53.090;6.692;2023-02-11T01:32:24;15.77;;;7.20;;
53751;SDS011;41095;53.090;6.692;2023-02-11T01:34:50;18.00;;;7.15;;
53751;SDS011;41095;53.090;6.692;2023-02-11T01:37:15;16.52;;;7.30;;
53751;SDS011;41095;53.090;6.692;2023-02-11T01:39:41;20.05;;;8.15;;
53751;SDS011;41095;53.090;6.692;2023-02-11T01:42:08;12.98;;;7.50;;
53751;SDS011;41095;53.090;6.692;2023-02-11T01:44:42;19.95;;;8.93;;
53751;SDS011;41095;53.090;6.692;2023-02-11T01:47:07;21.60;;;7.82;;
53751;SDS011;41095;53.090;6.692;2023-02-11T01:49:35;17.40;;;7.78;;
53751;SDS011;41095;53.090;6.692;2023-02-11T01:54:37;17.38;;;8.77;;
53751;SDS011;41095;53.090;6.692;2023-02-11T01:57:29;17.55;;;9.07;;
53751;SDS011;41095;53.090;6.692;2023-02-11T02:00:09;18.40;;;8.40;;
53751;SDS011;41095;53.090;6.692;2023-02-11T02:02:38;25.15;;;7.50;;
53751;SDS011;41095;53.090;6.692;2023-02-11T02:05:26;16.02;;;8.60;;
53751;SDS011;41095;53.090;6.692;2023-02-11T02:10:26;13.40;;;7.28;;
53751;SDS011;41095;53.090;6.692;2023-02-11T02:12:53;15.98;;;8.27;;
53751;SDS011;41095;53.090;6.692;2023-02-11T02:15:23;19.42;;;8.40;;
53751;SDS011;41095;53.090;6.692;2023-02-11T02:17:53;19.67;;;10.50;;
53751;SDS011;41095;53.090;6.692;2023-02-11T02:28:35;11.43;;;8.52;;
53751;SDS011;41095;53.090;6.692;2023-02-11T02:36:27;16.83;;;8.55;;
53751;SDS011;41095;53.090;6.692;2023-02-11T02:39:06;21.02;;;9.75;;
53751;SDS011;41095;53.090;6.692;2023-02-11T02:41:36;21.35;;;9.73;;
53751;SDS011;41095;53.090;6.692;2023-02-11T02:44:02;22.38;;;10.63;;
53751;SDS011;41095;53.090;6.692;2023-02-11T02:46:30;19.17;;;10.52;;
53751;SDS011;41095;53.090;6.692;2023-02-11T02:48:57;19.25;;;10.30;;
53751;SDS011;41095;53.090;6.692;2023-02-11T02:57:21;18.23;;;10.07;;
53751;SDS011;41095;53.090;6.692;2023-02-11T03:02:41;20.63;;;11.95;;
53751;SDS011;41095;53.090;6.692;2023-02-11T03:08:06;18.95;;;12.27;;
53751;SDS011;41095;53.090;6.692;2023-02-11T03:10:35;24.17;;;12.65;;
53751;SDS011;41095;53.090;6.692;2023-02-11T03:13:11;22.77;;;11.80;;
53751;SDS011;41095;53.090;6.692;2023-02-11T03:15:42;22.92;;;11.68;;
53751;SDS011;41095;53.090;6.692;2023-02-11T03:18:10;20.40;;;11.95;;
53751;SDS011;41095;53.090;6.692;2023-02-11T03:20:39;17.60;;;12.65;;
53751;SDS011;41095;53.090;6.692;2023-02-11T03:28:43;19.40;;;12.13;;
53751;SDS011;41095;53.090;6.692;2023-02-11T03:31:27;24.13;;;13.20;;
53751;SDS011;41095;53.090;6.692;2023-02-11T03:36:34;22.98;;;13.50;;
53751;SDS011;41095;53.090;6.692;2023-02-11T03:39:11;20.58;;;12.35;;
53751;SDS011;41095;53.090;6.692;2023-02-11T03:41:40;24.75;;;12.60;;
53751;SDS011;41095;53.090;6.692;2023-02-11T03:44:07;21.17;;;12.98;;
53751;SDS011;41095;53.090;6.692;2023-02-11T03:46:37;19.17;;;12.73;;
53751;SDS011;41095;53.090;6.692;2023-02-11T03:49:08;25.02;;;14.93;;
53751;SDS011;41095;53.090;6.692;2023-02-11T03:51:37;24.75;;;14.80;;
53751;SDS011;41095;53.090;6.692;2023-02-11T03:54:05;20.83;;;14.30;;
53751;SDS011;41095;53.090;6.692;2023-02-11T03:56:40;22.20;;;13.52;;
53751;SDS011;41095;53.090;6.692;2023-02-11T03:59:13;22.65;;;13.65;;
53751;SDS011;41095;53.090;6.692;2023-02-11T04:01:38;20.23;;;12.63;;
53751;SDS011;41095;53.090;6.692;2023-02-11T04:04:05;26.27;;;14.57;;
53751;SDS011;41095;53.090;6.692;2023-02-11T04:06:30;22.75;;;15.60;;
53751;SDS011;41095;53.090;6.692;2023-02-11T04:08:56;23.38;;;14.82;;
53751;SDS011;41095;53.090;6.692;2023-02-11T04:11:22;26.15;;;15.48;;
53751;SDS011;41095;53.090;6.692;2023-02-11T04:13:47;25.10;;;15.40;;
53751;SDS011;41095;53.090;6.692;2023-02-11T04:16:13;29.15;;;15.20;;
53751;SDS011;41095;53.090;6.692;2023-02-11T04:18:39;22.00;;;13.35;;
53751;SDS011;41095;53.090;6.692;2023-02-11T04:21:04;21.23;;;14.00;;
53751;SDS011;41095;53.090;6.692;2023-02-11T04:23:31;22.42;;;14.32;;
53751;SDS011;41095;53.090;6.692;2023-02-11T04:25:56;25.52;;;15.65;;
53751;SDS011;41095;53.090;6.692;2023-02-11T04:28:22;26.08;;;15.13;;
53751;SDS011;41095;53.090;6.692;2023-02-11T04:30:48;21.77;;;13.93;;
53751;SDS011;41095;53.090;6.692;2023-02-11T04:33:15;19.75;;;14.45;;
53751;SDS011;41095;53.090;6.692;2023-02-11T04:35:41;31.38;;;15.15;;
53751;SDS011;41095;53.090;6.692;2023-02-11T04:38:06;23.27;;;15.38;;
53751;SDS011;41095;53.090;6.692;2023-02-11T04:40:32;26.52;;;16.40;;
53751;SDS011;41095;53.090;6.692;2023-02-11T04:42:58;24.75;;;15.23;;
53751;SDS011;41095;53.090;6.692;2023-02-11T04:45:24;22.90;;;15.82;;
53751;SDS011;41095;53.090;6.692;2023-02-11T04:47:49;26.20;;;15.85;;
53751;SDS011;41095;53.090;6.692;2023-02-11T04:50:15;28.30;;;15.52;;
53751;SDS011;41095;53.090;6.692;2023-02-11T04:52:41;28.30;;;14.85;;
53751;SDS011;41095;53.090;6.692;2023-02-11T04:55:07;25.48;;;17.13;;
53751;SDS011;41095;53.090;6.692;2023-02-11T04:57:33;21.98;;;14.57;;
53751;SDS011;41095;53.090;6.692;2023-02-11T04:59:58;23.85;;;15.13;;
53751;SDS011;41095;53.090;6.692;2023-02-11T05:02:24;22.95;;;15.18;;
53751;SDS011;41095;53.090;6.692;2023-02-11T05:04:50;26.55;;;16.92;;
53751;SDS011;41095;53.090;6.692;2023-02-11T05:07:15;28.33;;;16.02;;
53751;SDS011;41095;53.090;6.692;2023-02-11T05:09:41;26.48;;;15.32;;
53751;SDS011;41095;53.090;6.692;2023-02-11T05:12:07;23.00;;;16.02;;
53751;SDS011;41095;53.090;6.692;2023-02-11T05:14:32;21.23;;;14.35;;
53751;SDS011;41095;53.090;6.692;2023-02-11T05:16:58;30.70;;;16.35;;
53751;SDS011;41095;53.090;6.692;2023-02-11T05:19:24;25.92;;;16.27;;
53751;SDS011;41095;53.090;6.692;2023-02-11T05:21:50;23.90;;;14.77;;
53751;SDS011;41095;53.090;6.692;2023-02-11T05:24:17;25.92;;;14.65;;
53751;SDS011;41095;53.090;6.692;2023-02-11T05:26:43;24.88;;;14.88;;
53751;SDS011;41095;53.090;6.692;2023-02-11T05:29:09;24.40;;;16.35;;
53751;SDS011;41095;53.090;6.692;2023-02-11T05:31:34;24.85;;;16.10;;
53751;SDS011;41095;53.090;6.692;2023-02-11T05:34:00;29.38;;;15.45;;
53751;SDS011;41095;53.090;6.692;2023-02-11T05:36:28;22.05;;;13.85;;
53751;SDS011;41095;53.090;6.692;2023-02-11T05:38:54;24.48;;;15.13;;
53751;SDS011;41095;53.090;6.692;2023-02-11T05:41:19;21.70;;;14.57;;
53751;SDS011;41095;53.090;6.692;2023-02-11T05:43:48;24.60;;;15.73;;
53751;SDS011;41095;53.090;6.692;2023-02-11T05:46:17;23.17;;;16.17;;
53751;SDS011;41095;53.090;6.692;2023-02-11T05:48:43;22.45;;;14.23;;
53751;SDS011;41095;53.090;6.692;2023-02-11T05:51:09;21.30;;;14.82;;
53751;SDS011;41095;53.090;6.692;2023-02-11T05:53:35;21.85;;;13.95;;
53751;SDS011;41095;53.090;6.692;2023-02-11T05:56:01;21.83;;;15.38;;
53751;SDS011;41095;53.090;6.692;2023-02-11T05:58:26;23.88;;;14.02;;
53751;SDS011;41095;53.090;6.692;2023-02-11T06:00:52;22.67;;;14.05;;
53751;SDS011;41095;53.090;6.692;2023-02-11T06:03:18;22.70;;;14.80;;
53751;SDS011;41095;53.090;6.692;2023-02-11T06:05:44;24.15;;;14.23;;
53751;SDS011;41095;53.090;6.692;2023-02-11T06:08:10;27.13;;;14.77;;
53751;SDS011;41095;53.090;6.692;2023-02-11T06:10:36;24.63;;;14.73;;
53751;SDS011;41095;53.090;6.692;2023-02-11T06:13:02;26.65;;;15.27;;
53751;SDS011;41095;53.090;6.692;2023-02-11T06:15:28;24.00;;;14.65;;
53751;SDS011;41095;53.090;6.692;2023-02-11T06:17:54;24.30;;;15.00;;
53751;SDS011;41095;53.090;6.692;2023-02-11T06:20:19;21.73;;;14.43;;
53751;SDS011;41095;53.090;6.692;2023-02-11T06:22:45;26.30;;;15.55;;
53751;SDS011;41095;53.090;6.692;2023-02-11T06:25:11;27.60;;;16.35;;
53751;SDS011;41095;53.090;6.692;2023-02-11T06:27:38;20.63;;;15.13;;
53751;SDS011;41095;53.090;6.692;2023-02-11T06:30:04;23.15;;;14.35;;
53751;SDS011;41095;53.090;6.692;2023-02-11T06:32:31;26.80;;;15.88;;
53751;SDS011;41095;53.090;6.692;2023-02-11T06:34:57;23.70;;;15.43;;
53751;SDS011;41095;53.090;6.692;2023-02-11T06:37:23;24.25;;;15.40;;
53751;SDS011;41095;53.090;6.692;2023-02-11T06:39:48;25.65;;;15.90;;
53751;SDS011;41095;53.090;6.692;2023-02-11T06:42:14;21.65;;;15.00;;
53751;SDS011;41095;53.090;6.692;2023-02-11T06:44:40;31.40;;;16.20;;
53751;SDS011;41095;53.090;6.692;2023-02-11T06:47:05;25.10;;;14.13;;
53751;SDS011;41095;53.090;6.692;2023-02-11T06:49:31;23.38;;;15.45;;
53751;SDS011;41095;53.090;6.692;2023-02-11T06:51:57;25.40;;;16.45;;
53751;SDS011;41095;53.090;6.692;2023-02-11T06:54:22;26.58;;;15.70;;
53751;SDS011;41095;53.090;6.692;2023-02-11T06:56:48;24.65;;;16.80;;
53751;SDS011;41095;53.090;6.692;2023-02-11T06:59:14;26.95;;;15.85;;
53751;SDS011;41095;53.090;6.692;2023-02-11T07:01:44;25.23;;;19.40;;
53751;SDS011;41095;53.090;6.692;2023-02-11T07:04:10;21.75;;;15.88;;
53751;SDS011;41095;53.090;6.692;2023-02-11T07:06:38;23.55;;;15.98;;
53751;SDS011;41095;53.090;6.692;2023-02-11T07:09:04;26.10;;;17.48;;
53751;SDS011;41095;53.090;6.692;2023-02-11T07:11:31;25.23;;;16.10;;
53751;SDS011;41095;53.090;6.692;2023-02-11T07:14:01;26.63;;;16.70;;
53751;SDS011;41095;53.090;6.692;2023-02-11T07:16:29;28.52;;;17.73;;
53751;SDS011;41095;53.090;6.692;2023-02-11T07:18:54;25.42;;;17.00;;
53751;SDS011;41095;53.090;6.692;2023-02-11T07:21:20;25.85;;;15.75;;
53751;SDS011;41095;53.090;6.692;2023-02-11T07:23:48;27.40;;;16.73;;
53751;SDS011;41095;53.090;6.692;2023-02-11T07:26:15;24.27;;;16.20;;
53751;SDS011;41095;53.090;6.692;2023-02-11T07:28:42;29.52;;;17.85;;
53751;SDS011;41095;53.090;6.692;2023-02-11T07:31:09;27.60;;;16.77;;
53751;SDS011;41095;53.090;6.692;2023-02-11T07:33:53;33.03;;;18.45;;
53751;SDS011;41095;53.090;6.692;2023-02-11T07:36:20;30.02;;;17.27;;
53751;SDS011;41095;53.090;6.692;2023-02-11T07:38:47;30.75;;;16.58;;
53751;SDS011;41095;53.090;6.692;2023-02-11T07:41:14;31.33;;;18.80;;
53751;SDS011;41095;53.090;6.692;2023-02-11T07:43:42;22.92;;;15.63;;
53751;SDS011;41095;53.090;6.692;2023-02-11T07:46:12;29.17;;;15.93;;
53751;SDS011;41095;53.090;6.692;2023-02-11T07:48:40;27.50;;;18.08;;
53751;SDS011;41095;53.090;6.692;2023-02-11T07:51:07;23.77;;;16.98;;
53751;SDS011;41095;53.090;6.692;2023-02-11T07:53:34;28.75;;;16.83;;
53751;SDS011;41095;53.090;6.692;2023-02-11T07:56:00;30.55;;;16.88;;
53751;SDS011;41095;53.090;6.692;2023-02-11T07:58:27;26.30;;;17.85;;
53751;SDS011;41095;53.090;6.692;2023-02-11T08:00:53;29.23;;;17.85;;
53751;SDS011;41095;53.090;6.692;2023-02-11T08:03:18;28.33;;;18.08;;
53751;SDS011;41095;53.090;6.692;2023-02-11T08:05:44;27.08;;;16.23;;
53751;SDS011;41095;53.090;6.692;2023-02-11T08:08:09;33.22;;;19.15;;
53751;SDS011;41095;53.090;6.692;2023-02-11T08:10:35;32.40;;;19.95;;
53751;SDS011;41095;53.090;6.692;2023-02-11T08:13:01;27.80;;;16.35;;
53751;SDS011;41095;53.090;6.692;2023-02-11T08:15:26;31.95;;;17.75;;
53751;SDS011;41095;53.090;6.692;2023-02-11T08:17:52;29.42;;;18.30;;
53751;SDS011;41095;53.090;6.692;2023-02-11T08:20:18;24.92;;;17.88;;
53751;SDS011;41095;53.090;6.692;2023-02-11T08:22:44;27.50;;;17.17;;
53751;SDS011;41095;53.090;6.692;2023-02-11T08:25:09;26.90;;;17.48;;
53751;SDS011;41095;53.090;6.692;2023-02-11T08:27:35;24.45;;;16.45;;
53751;SDS011;41095;53.090;6.692;2023-02-11T08:30:01;24.65;;;16.92;;
53751;SDS011;41095;53.090;6.692;2023-02-11T08:32:26;30.02;;;17.83;;
53751;SDS011;41095;53.090;6.692;2023-02-11T08:34:52;29.67;;;17.40;;
53751;SDS011;41095;53.090;6.692;2023-02-11T08:37:18;27.17;;;17.17;;
53751;SDS011;41095;53.090;6.692;2023-02-11T08:39:44;31.17;;;18.08;;
53751;SDS011;41095;53.090;6.692;2023-02-11T08:42:11;24.63;;;17.88;;
53751;SDS011;41095;53.090;6.692;2023-02-11T08:44:37;22.75;;;16.10;;
53751;SDS011;41095;53.090;6.692;2023-02-11T08:47:03;33.28;;;17.85;;
53751;SDS011;41095;53.090;6.692;2023-02-11T08:49:29;30.23;;;17.58;;
53751;SDS011;41095;53.090;6.692;2023-02-11T08:51:56;27.00;;;15.85;;
53751;SDS011;41095;53.090;6.692;2023-02-11T08:54:26;24.80;;;16.17;;
53751;SDS011;41095;53.090;6.692;2023-02-11T08:56:52;19.77;;;14.13;;
53751;SDS011;41095;53.090;6.692;2023-02-11T08:59:17;22.23;;;15.30;;
53751;SDS011;41095;53.090;6.692;2023-02-11T09:01:43;26.10;;;15.00;;
53751;SDS011;41095;53.090;6.692;2023-02-11T09:04:11;25.83;;;16.00;;
53751;SDS011;41095;53.090;6.692;2023-02-11T09:06:37;20.70;;;14.70;;
53751;SDS011;41095;53.090;6.692;2023-02-11T09:09:03;25.75;;;14.43;;
53751;SDS011;41095;53.090;6.692;2023-02-11T09:11:30;28.98;;;15.70;;
53751;SDS011;41095;53.090;6.692;2023-02-11T09:13:58;25.23;;;15.45;;
53751;SDS011;41095;53.090;6.692;2023-02-11T09:16:25;23.33;;;14.35;;
53751;SDS011;41095;53.090;6.692;2023-02-11T09:18:58;19.52;;;13.55;;
53751;SDS011;41095;53.090;6.692;2023-02-11T09:21:25;19.90;;;12.05;;
53751;SDS011;41095;53.090;6.692;2023-02-11T09:23:51;21.05;;;13.77;;
53751;SDS011;41095;53.090;6.692;2023-02-11T09:26:18;22.38;;;12.45;;
53751;SDS011;41095;53.090;6.692;2023-02-11T09:28:52;16.90;;;11.73;;
53751;SDS011;41095;53.090;6.692;2023-02-11T09:31:20;19.08;;;13.18;;
53751;SDS011;41095;53.090;6.692;2023-02-11T09:33:49;23.95;;;11.90;;
53751;SDS011;41095;53.090;6.692;2023-02-11T09:36:18;19.27;;;12.73;;
53751;SDS011;41095;53.090;6.692;2023-02-11T09:38:46;22.58;;;12.52;;
53751;SDS011;41095;53.090;6.692;2023-02-11T09:44:05;19.20;;;12.90;;
53751;SDS011;41095;53.090;6.692;2023-02-11T09:46:35;21.23;;;12.32;;
53751;SDS011;41095;53.090;6.692;2023-02-11T09:49:05;19.92;;;10.90;;
53751;SDS011;41095;53.090;6.692;2023-02-11T09:51:43;17.40;;;12.07;;
53751;SDS011;41095;53.090;6.692;2023-02-11T09:54:22;19.17;;;11.57;;
53751;SDS011;41095;53.090;6.692;2023-02-11T09:57:00;16.70;;;10.77;;
53751;SDS011;41095;53.090;6.692;2023-02-11T09:59:26;20.40;;;10.45;;
53751;SDS011;41095;53.090;6.692;2023-02-11T10:01:54;22.88;;;11.68;;
53751;SDS011;41095;53.090;6.692;2023-02-11T10:07:23;15.80;;;10.73;;
53751;SDS011;41095;53.090;6.692;2023-02-11T10:10:00;19.48;;;11.98;;
53751;SDS011;41095;53.090;6.692;2023-02-11T10:21:23;16.45;;;10.75;;
53751;SDS011;41095;53.090;6.692;2023-02-11T10:24:00;15.52;;;9.98;;
53751;SDS011;41095;53.090;6.692;2023-02-11T10:26:30;16.52;;;10.10;;
53751;SDS011;41095;53.090;6.692;2023-02-11T10:28:58;13.13;;;9.15;;
53751;SDS011;41095;53.090;6.692;2023-02-11T10:31:39;10.07;;;8.55;;
53751;SDS011;41095;53.090;6.692;2023-02-11T10:34:10;14.77;;;9.98;;
53751;SDS011;41095;53.090;6.692;2023-02-11T10:36:39;14.32;;;9.57;;
53751;SDS011;41095;53.090;6.692;2023-02-11T10:39:13;15.10;;;10.07;;
53751;SDS011;41095;53.090;6.692;2023-02-11T10:41:48;11.90;;;9.10;;
53751;SDS011;41095;53.090;6.692;2023-02-11T10:44:22;14.85;;;10.55;;
53751;SDS011;41095;53.090;6.692;2023-02-11T10:46:49;17.88;;;8.52;;
53751;SDS011;41095;53.090;6.692;2023-02-11T10:49:35;14.00;;;8.63;;
53751;SDS011;41095;53.090;6.692;2023-02-11T10:55:23;21.45;;;10.88;;
53751;SDS011;41095;53.090;6.692;2023-02-11T10:57:52;13.80;;;8.10;;
53751;SDS011;41095;53.090;6.692;2023-02-11T11:00:28;15.85;;;8.48;;
53751;SDS011;41095;53.090;6.692;2023-02-11T11:03:06;13.73;;;8.40;;
53751;SDS011;41095;53.090;6.692;2023-02-11T11:05:48;14.70;;;8.82;;
53751;SDS011;41095;53.090;6.692;2023-02-11T11:08:15;15.23;;;8.63;;
53751;SDS011;41095;53.090;6.692;2023-02-11T11:10:43;10.15;;;7.53;;
53751;SDS011;41095;53.090;6.692;2023-02-11T11:13:23;16.30;;;8.60;;
53751;SDS011;41095;53.090;6.692;2023-02-11T11:18:31;11.85;;;7.05;;
53751;SDS011;41095;53.090;6.692;2023-02-11T11:21:00;13.43;;;6.88;;
53751;SDS011;41095;53.090;6.692;2023-02-11T11:23:29;11.20;;;7.35;;
53751;SDS011;41095;53.090;6.692;2023-02-11T11:26:00;12.48;;;6.53;;
53751;SDS011;41095;53.090;6.692;2023-02-11T11:28:27;14.60;;;7.63;;
53751;SDS011;41095;53.090;6.692;2023-02-11T11:30:54;11.98;;;6.47;;
53751;SDS011;41095;53.090;6.692;2023-02-11T11:33:32;9.73;;;6.60;;
53751;SDS011;41095;53.090;6.692;2023-02-11T11:36:00;11.65;;;6.95;;
53751;SDS011;41095;53.090;6.692;2023-02-11T11:38:30;12.43;;;6.50;;
53751;SDS011;41095;53.090;6.692;2023-02-11T11:41:11;12.75;;;6.13;;
53751;SDS011;41095;53.090;6.692;2023-02-11T11:43:54;12.18;;;6.30;;
53751;SDS011;41095;53.090;6.692;2023-02-11T11:46:41;10.68;;;5.57;;
53751;SDS011;41095;53.090;6.692;2023-02-11T11:49:16;10.30;;;6.07;;
53751;SDS011;41095;53.090;6.692;2023-02-11T11:54:42;9.00;;;4.80;;
53751;SDS011;41095;53.090;6.692;2023-02-11T11:57:15;10.15;;;5.38;;
53751;SDS011;41095;53.090;6.692;2023-02-11T11:59:43;8.25;;;5.40;;
53751;SDS011;41095;53.090;6.692;2023-02-11T12:07:31;9.18;;;4.93;;
53751;SDS011;41095;53.090;6.692;2023-02-11T12:13:03;9.55;;;4.85;;
53751;SDS011;41095;53.090;6.692;2023-02-11T12:23:38;11.25;;;4.90;;
53751;SDS011;41095;53.090;6.692;2023-02-11T12:31:26;10.00;;;4.93;;
53751;SDS011;41095;53.090;6.692;2023-02-11T12:37:14;6.28;;;4.70;;
53751;SDS011;41095;53.090;6.692;2023-02-11T12:45:22;8.48;;;5.30;;
53751;SDS011;41095;53.090;6.692;2023-02-11T12:50:52;11.63;;;5.00;;
53751;SDS011;41095;53.090;6.692;2023-02-11T12:56:25;9.05;;;5.20;;
53751;SDS011;41095;53.090;6.692;2023-02-11T12:58:54;10.20;;;5.22;;
53751;SDS011;41095;53.090;6.692;2023-02-11T13:01:25;11.75;;;5.55;;
53751;SDS011;41095;53.090;6.692;2023-02-11T13:03:56;9.13;;;5.28;;
53751;SDS011;41095;53.090;6.692;2023-02-11T13:06:33;11.40;;;5.15;;
53751;SDS011;41095;53.090;6.692;2023-02-11T13:09:04;6.03;;;4.95;;
53751;SDS011;41095;53.090;6.692;2023-02-11T13:11:42;9.02;;;5.10;;
53751;SDS011;41095;53.090;6.692;2023-02-11T13:14:29;7.07;;;4.28;;
53751;SDS011;41095;53.090;6.692;2023-02-11T13:17:00;12.02;;;5.03;;
53751;SDS011;41095;53.090;6.692;2023-02-11T13:19:37;13.18;;;4.82;;
53751;SDS011;41095;53.090;6.692;2023-02-11T13:22:16;9.98;;;5.25;;
53751;SDS011;41095;53.090;6.692;2023-02-11T13:24:52;7.05;;;4.18;;
53751;SDS011;41095;53.090;6.692;2023-02-11T13:30:14;8.85;;;5.05;;
53751;SDS011;41095;53.090;6.692;2023-02-11T13:33:17;7.53;;;4.60;;
53751;SDS011;41095;53.090;6.692;2023-02-11T13:38:23;8.68;;;4.50;;
53751;SDS011;41095;53.090;6.692;2023-02-11T13:40:57;8.70;;;4.35;;
53751;SDS011;41095;53.090;6.692;2023-02-11T13:43:24;8.18;;;3.47;;
53751;SDS011;41095;53.090;6.692;2023-02-11T13:45:56;10.90;;;3.83;;
53751;SDS011;41095;53.090;6.692;2023-02-11T13:48:36;7.97;;;4.22;;
53751;SDS011;41095;53.090;6.692;2023-02-11T13:51:36;6.25;;;3.75;;
53751;SDS011;41095;53.090;6.692;2023-02-11T13:54:04;7.85;;;5.15;;
53751;SDS011;41095;53.090;6.692;2023-02-11T13:56:35;5.80;;;4.63;;
53751;SDS011;41095;53.090;6.692;2023-02-11T13:59:05;7.03;;;3.85;;
53751;SDS011;41095;53.090;6.692;2023-02-11T14:02:01;8.98;;;4.70;;
53751;SDS011;41095;53.090;6.692;2023-02-11T14:10:51;8.15;;;4.03;;
53751;SDS011;41095;53.090;6.692;2023-02-11T14:13:33;11.25;;;4.43;;
53751;SDS011;41095;53.090;6.692;2023-02-11T14:18:38;5.30;;;3.80;;
53751;SDS011;41095;53.090;6.692;2023-02-11T14:29:25;4.93;;;3.50;;
53751;SDS011;41095;53.090;6.692;2023-02-11T14:41:15;7.95;;;4.45;;
53751;SDS011;41095;53.090;6.692;2023-02-11T14:43:43;8.40;;;3.75;;
53751;SDS011;41095;53.090;6.692;2023-02-11T14:46:13;8.73;;;3.45;;
53751;SDS011;41095;53.090;6.692;2023-02-11T14:48:43;6.82;;;3.95;;
53751;SDS011;41095;53.090;6.692;2023-02-11T14:51:21;10.45;;;4.75;;
53751;SDS011;41095;53.090;6.692;2023-02-11T14:53:53;5.80;;;3.53;;
53751;SDS011;41095;53.090;6.692;2023-02-11T14:56:24;9.02;;;4.05;;
53751;SDS011;41095;53.090;6.692;2023-02-11T14:58:55;8.05;;;3.78;;
53751;SDS011;41095;53.090;6.692;2023-02-11T15:04:04;5.28;;;3.45;;
53751;SDS011;41095;53.090;6.692;2023-02-11T15:06:46;5.95;;;3.85;;
53751;SDS011;41095;53.090;6.692;2023-02-11T15:11:53;7.07;;;4.30;;
53751;SDS011;41095;53.090;6.692;2023-02-11T15:14:29;4.25;;;3.25;;
53751;SDS011;41095;53.090;6.692;2023-02-11T15:17:01;8.18;;;3.45;;
53751;SDS011;41095;53.090;6.692;2023-02-11T15:19:33;9.05;;;4.07;;
53751;SDS011;41095;53.090;6.692;2023-02-11T15:22:06;6.38;;;3.33;;
53751;SDS011;41095;53.090;6.692;2023-02-11T15:24:42;10.40;;;3.97;;
53751;SDS011;41095;53.090;6.692;2023-02-11T15:29:43;11.05;;;3.92;;
53751;SDS011;41095;53.090;6.692;2023-02-11T15:32:12;14.68;;;3.65;;
53751;SDS011;41095;53.090;6.692;2023-02-11T15:34:50;9.25;;;4.00;;
53751;SDS011;41095;53.090;6.692;2023-02-11T15:39:48;5.60;;;3.53;;
53751;SDS011;41095;53.090;6.692;2023-02-11T15:42:15;8.40;;;3.63;;
53751;SDS011;41095;53.090;6.692;2023-02-11T15:44:42;14.90;;;5.55;;
53751;SDS011;41095;53.090;6.692;2023-02-11T15:47:08;8.65;;;4.50;;
53751;SDS011;41095;53.090;6.692;2023-02-11T15:49:35;8.68;;;3.92;;
53751;SDS011;41095;53.090;6.692;2023-02-11T15:52:02;12.02;;;4.95;;
53751;SDS011;41095;53.090;6.692;2023-02-11T15:54:28;9.05;;;4.38;;
53751;SDS011;41095;53.090;6.692;2023-02-11T15:57:03;9.50;;;4.05;;
53751;SDS011;41095;53.090;6.692;2023-02-11T15:59:35;9.77;;;4.90;;
53751;SDS011;41095;53.090;6.692;2023-02-11T16:02:17;9.23;;;5.40;;
53751;SDS011;41095;53.090;6.692;2023-02-11T16:05:07;6.45;;;3.58;;
53751;SDS011;41095;53.090;6.692;2023-02-11T16:07:48;10.73;;;3.58;;
53751;SDS011;41095;53.090;6.692;2023-02-11T16:12:49;7.85;;;3.47;;
53751;SDS011;41095;53.090;6.692;2023-02-11T16:15:42;6.82;;;3.80;;
53751;SDS011;41095;53.090;6.692;2023-02-11T16:18:37;8.85;;;3.38;;
53751;SDS011;41095;53.090;6.692;2023-02-11T16:21:11;7.70;;;3.30;;
53751;SDS011;41095;53.090;6.692;2023-02-11T16:23:42;7.20;;;3.85;;
53751;SDS011;41095;53.090;6.692;2023-02-11T16:29:06;10.05;;;4.03;;
53751;SDS011;41095;53.090;6.692;2023-02-11T16:31:38;8.38;;;4.95;;
53751;SDS011;41095;53.090;6.692;2023-02-11T16:36:41;8.15;;;4.00;;
53751;SDS011;41095;53.090;6.692;2023-02-11T16:39:07;11.13;;;4.97;;
53751;SDS011;41095;53.090;6.692;2023-02-11T16:41:33;9.80;;;4.28;;
53751;SDS011;41095;53.090;6.692;2023-02-11T16:43:58;9.93;;;4.60;;
53751;SDS011;41095;53.090;6.692;2023-02-11T16:46:24;10.90;;;4.93;;
53751;SDS011;41095;53.090;6.692;2023-02-11T16:48:51;7.38;;;3.88;;
53751;SDS011;41095;53.090;6.692;2023-02-11T16:51:21;8.75;;;4.68;;
53751;SDS011;41095;53.090;6.692;2023-02-11T16:53:47;9.00;;;4.18;;
53751;SDS011;41095;53.090;6.692;2023-02-11T16:56:14;9.07;;;4.68;;
53751;SDS011;41095;53.090;6.692;2023-02-11T16:58:42;9.25;;;3.95;;
53751;SDS011;41095;53.090;6.692;2023-02-11T17:01:08;9.43;;;4.93;;
53751;SDS011;41095;53.090;6.692;2023-02-11T17:03:34;8.70;;;4.07;;
53751;SDS011;41095;53.090;6.692;2023-02-11T17:06:13;7.78;;;4.43;;
53751;SDS011;41095;53.090;6.692;2023-02-11T17:08:39;9.70;;;3.75;;
53751;SDS011;41095;53.090;6.692;2023-02-11T17:11:05;8.57;;;4.88;;
53751;SDS011;41095;53.090;6.692;2023-02-11T17:13:31;11.68;;;4.57;;